Flight Track Log - Related Links

Times and Time Zones

All times are in EDT time to prevent confusion due to time zone crossing. See the N269C flight status page for this flight to view local times or setup timezone preferences in your user account.

Time Position Orientation Groundspeed Altitude Reporting Facility
EDT Latitude Longitude Course Direction KTS MPH feet Rate Location/Type
Wed 05:02:48 PM 39.8336 -121.8506 334° Northwest 131 151 2,900  Level Oakland Center
Wed 05:03:49 PM 39.8675 -121.8725 334° Northwest 133 153 3,800 878 Climbing Oakland Center
Wed 05:04:51 PM 39.9042 -121.8911 339° North 137 158 4,700 871 Climbing Oakland Center
Wed 05:05:53 PM 39.9419 -121.9125 337° Northwest 144 166 5,600 927 Climbing Oakland Center
Wed 05:06:54 PM 39.9867 -121.9358 338° Northwest 145 167 6,600 878 Climbing Oakland Center
Wed 05:07:56 PM 40.0250 -121.9572 337° Northwest 150 173 7,400 774 Climbing Oakland Center
Wed 05:08:58 PM 40.0636 -121.9781 338° Northwest 150 173 8,200 823 Climbing Oakland Center
Wed 05:10:00 PM 40.1019 -121.9992 337° Northwest 151 174 9,100 829 Climbing Oakland Center
Wed 05:11:01 PM 40.1403 -122.0197 338° Northwest 150 173 9,900 829 Climbing Oakland Center
Wed 05:12:03 PM 40.1789 -122.0422 336° Northwest 152 175 10,800 919 Climbing Oakland Center
Wed 05:13:05 PM 40.2283 -122.0672 339° North 158 182 11,800 829 Climbing Oakland Center
Wed 05:14:06 PM 40.2708 -122.0914 337° Northwest 164 189 12,500 683 Climbing Oakland Center
Wed 05:15:08 PM 40.3139 -122.1153 337° Northwest 168 193 13,200 677 Climbing Oakland Center
Wed 05:16:10 PM 40.3567 -122.1403 336° Northwest 169 194 13,900 726 Climbing Oakland Center
Wed 05:17:12 PM 40.4006 -122.1647 337° Northwest 172 198 14,700 732 Climbing Oakland Center
Wed 05:18:13 PM 40.4458 -122.1906 337° Northwest 176 203 15,400 585 Climbing Oakland Center
Wed 05:19:15 PM 40.5022 -122.2217 337° Northwest 183 211 15,900 242 Climbing Oakland Center
Wed 05:20:17 PM 40.5539 -122.2506 337° Northwest 200 230 15,900  Level Oakland Center
Wed 05:21:18 PM 40.6042 -122.2794 336° Northwest 198 228 15,900  Level Oakland Center
Wed 05:22:20 PM 40.6550 -122.3078 337° Northwest 199 229 15,900  Level Oakland Center
Wed 05:23:22 PM 40.7064 -122.3358 338° Northwest 200 230 15,900  Level Oakland Center
Wed 05:24:26 PM 40.7575 -122.3653 336° Northwest 201 231 15,900  Level Oakland Center
Wed 05:25:26 PM 40.8200 -122.4006 337° Northwest 204 235 15,900  Level Oakland Center
Wed 05:26:27 PM 40.8714 -122.4297 337° Northwest 203 234 15,900  Level Oakland Center
Wed 05:27:28 PM 40.9225 -122.4594 336° Northwest 202 232 15,900  Level Oakland Center
Wed 05:28:30 PM 40.9750 -122.4881 338° Northwest 204 235 15,900  Level Oakland Center
Wed 05:29:32 PM 41.0256 -122.5192 335° Northwest 202 232 15,900  Level Oakland Center
Wed 05:30:33 PM 41.0767 -122.5469 338° Northwest 200 230 15,900  Level Oakland Center
Wed 05:31:35 PM 41.1278 -122.5772 336° Northwest 202 232 15,900 48 Level Oakland Center
Wed 05:32:37 PM 41.1786 -122.6058 337° Northwest 200 230 16,000 52 Climbing Oakland Center
Wed 05:33:30 PM 41.2292 -122.6364 336° Northwest 200 230 16,000  Level Seattle Center
Wed 05:34:31 PM 41.2811 -122.6647 338° Northwest 200 230 16,000  Level Seattle Center
Wed 05:35:32 PM 41.3319 -122.6950 336° Northwest 201 231 16,000 -49 Level Seattle Center
Wed 05:36:33 PM 41.3842 -122.7250 337° Northwest 203 234 15,900 -49 Descending Seattle Center
Wed 05:37:34 PM 41.4417 -122.7589 336° Northwest 203 234 15,900  Level Seattle Center
Wed 05:38:35 PM 41.4942 -122.7872 338° Northwest 204 235 15,900  Level Seattle Center
Wed 05:39:37 PM 41.5469 -122.8169 337° Northwest 205 236 15,900 -49 Level Seattle Center
Wed 05:40:38 PM 41.5994 -122.8469 337° Northwest 206 237 15,800 -344 Descending Seattle Center
Wed 05:41:39 PM 41.6550 -122.8792 337° Northwest 215 247 15,200 -639 Descending Seattle Center
Wed 05:42:40 PM 41.7128 -122.9128 337° Northwest 221 254 14,500 -689 Descending Seattle Center
Wed 05:43:41 PM 41.7681 -122.9447 337° Northwest 216 249 13,800 -689 Descending Seattle Center
Wed 05:44:42 PM 41.8250 -122.9781 336° Northwest 221 254 13,100 -732 Descending Seattle Center
Wed 05:45:44 PM 41.8792 -123.0092 337° Northwest 213 245 12,300 -829 Descending Seattle Center
Wed 05:46:45 PM 41.9344 -123.0417 336° Northwest 217 250 11,400 -984 Descending Seattle Center
Wed 05:47:46 PM 41.9989 -123.0808 336° Northwest 213 245 10,300 -1,033 Descending Seattle Center
Wed 05:48:47 PM 42.0528 -123.1103 338° Northwest 209 241 9,300 -984 Descending Seattle Center
Wed 05:49:48 PM 42.1019 -123.1417 335° Northwest 200 230 8,300 -934 Descending Seattle Center
Wed 05:50:49 PM 42.1503 -123.1717 335° Northwest 193 222 7,400 -934 Descending Seattle Center
Wed 05:51:50 PM 42.1994 -123.2008 336° Northwest 193 222 6,400 -639 Descending Seattle Center
Wed 05:52:51 PM 42.2450 -123.2256 338° Northwest 193 222 6,100 -295 Descending Seattle Center

Login

Don't have an account? Register now (free) for customized features, flight alerts, and more!